Time;durP1;ratioP1;P1;durP2;ratioP2;P2;SDS_P1;SDS_P2;PMS_P1;PMS_P2;Temp;Humidity;BMP_temperature;BMP_pressure;BME280_temperature;BME280_humidity;BME280_pressure;Samples;Min_cycle;Max_cycle;Signal;HPM_P1;HPM_P2
2022/11/16 00:02:10;;;;;;;5.75;4.63;;;;;;;9.93;95.10;99688.53;5036240;28;20107;-75
2022/11/16 00:04:36;;;;;;;6.47;3.33;;;;;;;9.89;95.07;99685.13;5037340;28;20048;-75
2022/11/16 00:07:03;;;;;;;8.75;4.80;;;;;;;9.91;94.75;99691.19;5032421;28;20041;-75
2022/11/16 00:09:31;;;;;;;5.25;3.45;;;;;;;9.91;94.71;99685.13;5029920;28;20030;-75
2022/11/16 00:12:07;;;;;;;6.82;4.22;;;;;;;9.89;94.49;99677.28;5015740;28;20053;-75
2022/11/16 00:14:35;;;;;;;9.18;4.60;;;;;;;9.89;94.64;99665.97;5039134;28;20045;-75
2022/11/16 00:17:03;;;;;;;6.13;4.78;;;;;;;9.88;94.25;99667.75;5035983;28;20042;-75
2022/11/16 00:19:30;;;;;;;6.72;4.68;;;;;;;9.87;94.05;99670.41;5035594;28;20045;-75
2022/11/16 00:21:57;;;;;;;9.95;5.25;;;;;;;9.88;93.66;99670.34;5045715;28;20046;-77
2022/11/16 00:24:24;;;;;;;5.70;4.82;;;;;;;9.88;93.30;99665.13;5042945;28;20168;-77
2022/11/16 00:26:53;;;;;;;6.13;4.53;;;;;;;9.89;92.98;99669.44;5034167;28;20116;-75
2022/11/16 00:29:24;;;;;;;6.97;4.53;;;;;;;9.88;93.03;99665.13;5023515;28;20041;-75
2022/11/16 00:31:54;;;;;;;9.32;4.53;;;;;;;9.88;92.61;99665.13;5039272;28;20046;-75
2022/11/16 00:34:22;;;;;;;8.30;5.28;;;;;;;9.90;92.23;99665.09;5042906;28;20137;-75
2022/11/16 00:36:49;;;;;;;8.02;5.45;;;;;;;9.90;92.57;99659.84;5037695;28;20037;-75
2022/11/16 00:39:18;;;;;;;10.70;4.95;;;;;;;9.88;92.29;99652.06;5037353;28;20148;-75
2022/11/16 00:41:44;;;;;;;7.85;5.43;;;;;;;9.89;92.30;99655.53;5024167;28;20080;-75
2022/11/16 00:44:12;;;;;;;8.15;4.82;;;;;;;9.87;92.37;99652.09;5027138;28;20141;-75
2022/11/16 00:46:39;;;;;;;6.47;4.82;;;;;;;9.89;91.97;99645.06;5024346;28;20059;-76
2022/11/16 00:49:05;;;;;;;6.90;5.07;;;;;;;9.88;92.06;99643.34;5034742;28;20048;-76
2022/11/16 00:51:34;;;;;;;5.15;4.28;;;;;;;9.87;91.87;99641.66;5035153;28;20067;-76
2022/11/16 00:54:01;;;;;;;6.75;4.80;;;;;;;9.89;91.67;99645.06;5035027;28;20333;-75
2022/11/16 00:56:28;;;;;;;6.65;5.20;;;;;;;9.88;91.74;99643.34;5033095;28;20142;-75
2022/11/16 00:58:54;;;;;;;8.95;5.18;;;;;;;9.89;91.46;99640.69;5038974;28;20040;-75
2022/11/16 01:01:21;;;;;;;7.15;4.72;;;;;;;9.89;91.05;99632.84;5018773;28;20057;-76
2022/11/16 01:03:47;;;;;;;5.70;5.05;;;;;;;9.88;91.51;99635.50;5039729;28;20037;-75
2022/11/16 01:06:15;;;;;;;8.70;5.40;;;;;;;9.87;91.54;99637.25;5040871;28;20119;-75
2022/11/16 01:08:43;;;;;;;5.88;4.63;;;;;;;9.87;91.41;99632.03;5036088;28;20045;-75
2022/11/16 01:13:59;;;;;;;8.00;5.50;;;;;;;9.89;90.51;99632.84;5033901;28;20052;-75
2022/11/16 01:16:25;;;;;;;9.82;5.50;;;;;;;9.88;90.61;99631.16;5050971;28;20116;-75
2022/11/16 01:18:54;;;;;;;6.72;5.10;;;;;;;9.88;90.60;99622.44;5028578;28;20046;-75
2022/11/16 01:21:22;;;;;;;6.60;5.15;;;;;;;9.87;90.59;99626.81;5032961;28;20049;-75
2022/11/16 01:23:49;;;;;;;7.15;5.43;;;;;;;9.87;90.33;99618.97;5035279;28;20057;-77
2022/11/16 01:26:16;;;;;;;7.38;4.78;;;;;;;9.87;90.14;99620.72;5027108;28;20049;-75
2022/11/16 01:28:43;;;;;;;7.40;5.47;;;;;;;9.86;90.39;99614.63;5030604;28;20132;-76
2022/11/16 01:31:11;;;;;;;7.10;5.50;;;;;;;9.84;90.01;99615.56;5034167;28;20050;-74
2022/11/16 01:33:37;;;;;;;7.90;5.30;;;;;;;9.83;89.98;99606.88;5045956;28;20069;-77
2022/11/16 01:36:13;;;;;;;6.15;4.05;;;;;;;9.81;90.26;99608.63;5033889;28;20045;-75
2022/11/16 01:38:42;;;;;;;8.88;4.78;;;;;;;9.80;90.34;99603.47;5028437;28;20049;-76
2022/11/16 01:41:09;;;;;;;7.68;4.85;;;;;;;9.77;90.21;99600.00;5027049;28;20061;-78
2022/11/16 01:44:04;;;;;;;8.05;4.63;;;;;;;9.78;90.59;99606.09;5026249;28;20407;-79
2022/11/16 01:46:32;;;;;;;9.15;5.70;;;;;;;9.77;89.77;99604.38;5025495;28;20041;-75
2022/11/16 01:49:16;;;;;;;5.07;4.25;;;;;;;9.77;90.23;99602.63;5033702;28;20677;-77
2022/11/16 01:51:48;;;;;;;9.40;4.78;;;;;;;9.78;89.68;99590.44;5031955;28;20124;-77
2022/11/16 01:54:16;;;;;;;8.10;5.07;;;;;;;9.78;89.88;99593.03;5018481;28;20053;-75
2022/11/16 01:56:45;;;;;;;6.20;4.45;;;;;;;9.78;89.82;99585.19;5030475;28;20140;-76
2022/11/16 01:59:13;;;;;;;7.03;4.60;;;;;;;9.78;89.66;99585.19;5029197;28;20050;-78
2022/11/16 02:01:40;;;;;;;7.90;4.90;;;;;;;9.77;89.75;99579.09;5032812;28;20046;-75
2022/11/16 02:04:09;;;;;;;9.70;5.45;;;;;;;9.78;89.42;99579.97;5036442;28;20036;-75
2022/11/16 02:06:56;;;;;;;7.03;5.25;;;;;;;9.76;89.69;99574.78;5028246;28;20037;-74
2022/11/16 02:09:59;;;;;;;9.23;5.03;;;;;;;9.75;89.40;99569.56;5047515;28;20069;-76
2022/11/16 02:12:52;;;;;;;5.57;4.68;;;;;;;9.75;89.74;99569.56;5030776;28;20049;-75
2022/11/16 02:16:29;;;;;;;8.00;5.55;;;;;;;9.75;89.50;99574.78;5028297;28;20058;-75
2022/11/16 02:19:35;;;;;;;11.80;5.63;;;;;;;9.72;89.79;99569.66;4979977;28;20050;-76
2022/11/16 02:22:43;;;;;;;7.20;5.00;;;;;;;9.70;90.04;99576.66;5026438;28;20042;-76
2022/11/16 02:25:26;;;;;;;7.38;6.05;;;;;;;9.69;90.05;99577.56;5035373;28;20690;-75
2022/11/16 02:28:22;;;;;;;5.18;4.30;;;;;;;9.68;89.71;99576.69;5027402;28;20124;-83
2022/11/16 02:30:52;;;;;;;6.68;5.03;;;;;;;9.68;90.55;99578.47;5026434;28;20338;-77
2022/11/16 02:33:27;;;;;;;5.60;4.90;;;;;;;9.64;90.73;99577.66;5010650;28;20064;-76
2022/11/16 02:35:58;;;;;;;7.47;5.50;;;;;;;9.62;91.53;99576.84;5037354;28;20432;-78
2022/11/16 02:38:29;;;;;;;8.70;5.75;;;;;;;9.57;92.01;99570.88;5027089;28;20057;-77
2022/11/16 02:41:08;;;;;;;6.68;5.45;;;;;;;9.54;92.91;99581.38;5031790;28;20049;-82
2022/11/16 02:43:41;;;;;;;5.25;4.72;;;;;;;9.51;93.17;99581.44;5008816;28;20053;-78
2022/11/16 02:46:16;;;;;;;8.57;5.72;;;;;;;9.47;93.74;99569.34;5028969;28;20053;-75
2022/11/16 02:48:49;;;;;;;7.43;5.88;;;;;;;9.44;94.05;99571.13;5028287;28;20041;-76
2022/11/16 02:51:18;;;;;;;9.82;5.75;;;;;;;9.42;94.60;99570.28;5042490;28;20045;-75
2022/11/16 02:54:15;;;;;;;8.60;5.90;;;;;;;9.40;95.07;99568.63;5008380;28;20053;-76
2022/11/16 02:57:04;;;;;;;10.18;5.60;;;;;;;9.39;95.46;99566.91;5026206;28;20063;-76
2022/11/16 02:59:41;;;;;;;14.30;7.25;;;;;;;9.35;95.64;99578.31;5028052;28;20038;-77
2022/11/16 03:02:30;;;;;;;8.18;5.80;;;;;;;9.32;95.97;99567.91;5028304;28;20053;-77
2022/11/16 03:05:11;;;;;;;8.90;5.70;;;;;;;9.27;96.80;99560.19;5030149;28;20061;-74
2022/11/16 03:07:46;;;;;;;11.23;7.25;;;;;;;9.25;97.34;99585.47;5014022;28;20662;-75
2022/11/16 03:11:58;;;;;;;8.32;6.57;;;;;;;9.22;97.89;99590.75;5027640;28;20118;-75
2022/11/16 03:13:06;;;;;;;10.27;6.72;;;;;;;9.17;98.95;99576.94;5041422;28;20048;-75
2022/11/16 03:15:36;;;;;;;9.00;6.70;;;;;;;9.14;99.36;99596.13;5038550;28;20555;-78
2022/11/16 03:18:05;;;;;;;7.53;6.35;;;;;;;9.09;99.88;99584.94;5028420;28;20140;-75
2022/11/16 03:20:35;;;;;;;10.77;6.82;;;;;;;9.05;100.00;99581.50;5041285;28;20045;-80
2022/11/16 03:23:08;;;;;;;11.77;7.65;;;;;;;9.03;100.00;99582.44;5018314;28;20096;-74
2022/11/16 03:25:51;;;;;;;9.30;5.93;;;;;;;8.99;100.00;99581.63;5028214;28;20045;-78
2022/11/16 03:28:38;;;;;;;10.27;7.53;;;;;;;8.96;100.00;99589.53;5025727;28;20512;-75
2022/11/16 03:31:13;;;;;;;11.52;7.45;;;;;;;8.95;100.00;99587.81;5011240;28;20183;-83
2022/11/16 03:33:47;;;;;;;14.68;8.70;;;;;;;8.94;100.00;99580.84;5031588;28;20119;-76
2022/11/16 03:36:33;;;;;;;11.18;7.13;;;;;;;8.94;100.00;99592.19;5026582;28;20056;-78
2022/11/16 03:39:09;;;;;;;10.48;7.63;;;;;;;8.94;100.00;99579.13;5021260;28;20073;-74
2022/11/16 03:41:40;;;;;;;11.35;7.28;;;;;;;8.92;100.00;99583.50;5028660;28;20048;-78
2022/11/16 03:44:09;;;;;;;13.00;9.23;;;;;;;8.91;100.00;99575.72;5023478;28;20383;-76
2022/11/16 03:46:36;;;;;;;14.63;7.82;;;;;;;8.88;100.00;99587.06;5035983;28;20422;-78
2022/11/16 03:49:02;;;;;;;13.27;8.20;;;;;;;8.87;100.00;99576.66;5028669;28;20045;-78
2022/11/16 03:51:29;;;;;;;15.02;8.57;;;;;;;8.85;100.00;99567.97;5029315;28;20045;-78
2022/11/16 03:53:55;;;;;;;11.50;7.50;;;;;;;8.84;100.00;99577.56;5033646;28;20126;-78
2022/11/16 03:56:22;;;;;;;14.30;7.95;;;;;;;8.82;100.00;99575.88;5030904;28;20052;-76
2022/11/16 03:58:48;;;;;;;13.23;8.10;;;;;;;8.78;100.00;99573.31;5030391;28;20432;-76
2022/11/16 04:01:15;;;;;;;10.75;7.95;;;;;;;8.77;100.00;99575.97;5032736;28;20740;-77
2022/11/16 04:03:41;;;;;;;12.45;7.78;;;;;;;8.74;100.00;99582.09;5026695;28;20041;-78
2022/11/16 04:25:59;;;;;;;11.63;8.82;;;;;;;8.58;100.00;99584.13;5035201;28;20083;-82
2022/11/16 04:28:30;;;;;;;14.93;10.48;;;;;;;8.56;100.00;99590.25;5026647;28;20906;-76
2022/11/16 04:39:27;;;;;;;;;;;;;;;8.52;100.00;99580.78;4992597;28;20036;-78
2022/11/16 04:47:22;;;;;;;14.82;9.48;;;;;;;8.44;100.00;99584.34;5027902;28;19967;-76
2022/11/16 04:49:48;;;;;;;13.93;10.45;;;;;;;8.43;100.00;99581.75;5032983;28;20052;-75
2022/11/16 04:52:15;;;;;;;16.63;10.52;;;;;;;8.39;100.00;99580.94;5035733;28;20101;-76
2022/11/16 04:54:41;;;;;;;16.05;10.45;;;;;;;8.38;100.00;99580.97;5016403;28;20041;-77
2022/11/16 04:57:08;;;;;;;19.27;11.40;;;;;;;8.37;100.00;99584.47;5032748;28;20041;-76
2022/11/16 04:59:34;;;;;;;19.85;12.50;;;;;;;8.34;100.00;99597.56;5037234;28;20038;-75
2022/11/16 05:02:10;;;;;;;15.52;10.00;;;;;;;8.31;100.00;99584.59;5031868;28;20125;-75
2022/11/16 05:04:39;;;;;;;21.23;12.13;;;;;;;8.27;100.00;99582.00;5052021;28;20100;-76
2022/11/16 05:07:09;;;;;;;18.00;12.80;;;;;;;8.23;100.00;99585.56;5032645;28;20116;-75
2022/11/16 05:09:47;;;;;;;21.33;12.03;;;;;;;8.23;100.00;99579.50;5017095;28;20048;-79
2022/11/16 05:12:22;;;;;;;17.98;12.75;;;;;;;8.20;100.00;99575.19;5032825;28;20262;-75
2022/11/16 05:14:49;;;;;;;17.25;10.70;;;;;;;8.17;100.00;99584.81;5023170;28;20115;-76
2022/11/16 05:17:16;;;;;;;24.55;12.45;;;;;;;8.14;100.00;99580.50;5016015;28;20049;-79
2022/11/16 05:22:27;;;;;;;18.15;12.18;;;;;;;8.09;100.00;99575.34;5029643;28;20037;-77
2022/11/16 05:24:53;;;;;;;21.70;13.13;;;;;;;8.07;100.00;99582.34;5019912;28;20392;-78
2022/11/16 05:27:22;;;;;;;20.58;12.70;;;;;;;8.04;100.00;99579.78;5054589;28;20654;-76
2022/11/16 05:29:49;;;;;;;21.10;12.43;;;;;;;8.03;100.00;99582.41;5034330;28;20056;-75
2022/11/16 05:32:17;;;;;;;20.85;13.65;;;;;;;7.98;100.00;99576.41;5029298;28;20076;-78
2022/11/16 05:34:44;;;;;;;19.00;12.18;;;;;;;7.93;100.00;99574.75;5031965;28;20049;-77
2022/11/16 05:37:11;;;;;;;22.17;13.45;;;;;;;7.91;100.00;99583.47;5026087;28;20054;-76
2022/11/16 05:39:38;;;;;;;29.10;17.73;;;;;;;7.89;100.00;99573.06;5040909;28;20049;-77
2022/11/16 05:42:06;;;;;;;24.17;14.80;;;;;;;7.85;100.00;99580.94;5027275;28;20677;-76
2022/11/16 05:44:32;;;;;;;24.50;13.63;;;;;;;7.80;100.00;99580.19;5028285;28;20045;-79
2022/11/16 05:47:00;;;;;;;19.77;12.68;;;;;;;7.76;100.00;99581.97;5026943;28;20061;-76
2022/11/16 05:49:26;;;;;;;19.23;13.40;;;;;;;7.74;100.00;99591.53;5015248;28;20128;-79
2022/11/16 05:51:53;;;;;;;24.17;14.23;;;;;;;7.68;100.00;99587.28;5026103;28;20129;-77
2022/11/16 05:54:23;;;;;;;28.70;14.88;;;;;;;7.62;100.00;99592.56;5024169;28;20484;-78
2022/11/16 05:56:50;;;;;;;27.65;16.05;;;;;;;7.59;100.00;99590.88;5030954;28;20507;-76
2022/11/16 05:59:20;;;;;;;28.02;15.60;;;;;;;7.56;100.00;99590.94;5022067;28;20507;-78
2022/11/16 06:01:47;;;;;;;28.20;16.40;;;;;;;7.51;100.00;99597.94;5028833;28;20043;-77
2022/11/16 06:04:15;;;;;;;24.75;15.25;;;;;;;7.43;100.00;99604.97;5018535;28;20051;-75
2022/11/16 06:06:41;;;;;;;28.17;17.92;;;;;;;7.39;100.00;99609.38;5025489;28;20048;-76
2022/11/16 06:09:10;;;;;;;28.52;15.38;;;;;;;7.31;100.00;99606.00;5031349;28;20060;-76
2022/11/16 06:11:37;;;;;;;27.15;17.17;;;;;;;7.26;100.00;99611.28;5031631;28;20045;-77
2022/11/16 06:14:04;;;;;;;31.00;19.13;;;;;;;7.25;100.00;99612.16;5028735;28;20045;-76
2022/11/16 06:16:31;;;;;;;27.02;15.50;;;;;;;7.22;100.00;99609.59;5030823;28;20041;-81
2022/11/16 06:19:00;;;;;;;27.42;16.23;;;;;;;7.19;100.00;99604.41;5028964;28;20053;-78
2022/11/16 06:21:26;;;;;;;34.08;18.52;;;;;;;7.16;100.00;99599.25;5039312;28;20045;-76
2022/11/16 06:23:53;;;;;;;33.53;18.13;;;;;;;7.11;100.00;99596.69;5053059;28;20065;-75
2022/11/16 06:26:20;;;;;;;29.10;16.42;;;;;;;7.08;100.00;99599.34;5031238;28;20064;-74
2022/11/16 06:28:46;;;;;;;29.33;17.77;;;;;;;7.02;100.00;99596.78;5042676;28;20160;-74
2022/11/16 06:31:13;;;;;;;30.58;18.00;;;;;;;7.03;100.00;99593.31;5032052;28;20067;-75
2022/11/16 06:33:39;;;;;;;29.25;18.67;;;;;;;6.98;100.00;99597.72;5031780;28;20045;-74
2022/11/16 06:36:06;;;;;;;27.63;18.08;;;;;;;6.94;100.00;99598.63;5037139;28;20042;-76
2022/11/16 06:38:33;;;;;;;27.88;18.40;;;;;;;6.88;100.00;99599.56;5035357;28;20041;-76
2022/11/16 06:41:00;;;;;;;29.35;17.38;;;;;;;6.85;100.00;99604.78;5039537;28;20040;-75
2022/11/16 06:43:27;;;;;;;26.60;16.70;;;;;;;6.79;100.00;99600.53;5038250;28;20058;-77
2022/11/16 06:45:56;;;;;;;31.27;17.30;;;;;;;6.77;100.00;99599.66;5028649;28;20069;-75
2022/11/16 06:48:23;;;;;;;33.17;18.40;;;;;;;6.76;100.00;99607.50;5017583;28;20041;-75
2022/11/16 06:50:51;;;;;;;29.60;17.35;;;;;;;6.73;100.00;99608.38;5049506;28;20044;-75
2022/11/16 06:53:19;;;;;;;31.92;17.95;;;;;;;6.71;100.00;99607.53;5031056;28;20048;-75
2022/11/16 06:55:45;;;;;;;34.55;18.17;;;;;;;6.68;100.00;99597.16;5030274;28;20182;-75
2022/11/16 06:58:15;;;;;;;26.80;16.65;;;;;;;6.68;100.00;99604.13;5038532;28;20045;-75
2022/11/16 07:00:41;;;;;;;32.70;19.17;;;;;;;6.67;100.00;99608.44;5048475;28;20048;-76
2022/11/16 07:03:08;;;;;;;35.88;17.58;;;;;;;6.65;100.00;99614.53;5045104;28;20061;-75
2022/11/16 07:05:39;;;;;;;28.23;17.88;;;;;;;6.65;100.00;99605.00;5048108;28;20045;-78
2022/11/16 07:08:05;;;;;;;27.83;17.80;;;;;;;6.65;100.00;99610.22;5034828;28;20037;-75
2022/11/16 07:10:32;;;;;;;34.88;20.08;;;;;;;6.64;100.00;99605.03;5032113;28;20049;-75
2022/11/16 07:13:03;;;;;;;30.13;18.88;;;;;;;6.58;100.00;99601.59;5036872;28;20046;-75
2022/11/16 07:15:30;;;;;;;32.78;18.55;;;;;;;6.56;100.00;99600.75;5050809;28;20107;-75
2022/11/16 07:17:56;;;;;;;34.08;19.50;;;;;;;6.57;100.00;99599.00;5018073;28;20527;-75
2022/11/16 07:20:23;;;;;;;35.15;19.20;;;;;;;6.55;100.00;99592.97;5043963;28;20120;-75
2022/11/16 07:22:50;;;;;;;35.00;20.60;;;;;;;6.52;100.00;99600.78;5032855;28;20140;-76
2022/11/16 07:25:16;;;;;;;31.90;19.10;;;;;;;6.50;100.00;99593.00;5031605;28;20053;-78
2022/11/16 07:27:42;;;;;;;31.80;19.02;;;;;;;6.49;100.00;99600.81;5029568;28;20477;-76
2022/11/16 07:30:09;;;;;;;34.00;18.90;;;;;;;6.48;100.00;99606.88;5035052;28;20599;-76
2022/11/16 07:32:38;;;;;;;35.85;20.23;;;;;;;6.44;100.00;99601.72;5026426;28;20034;-77
2022/11/16 07:35:05;;;;;;;34.22;21.40;;;;;;;6.42;100.00;99600.00;5034688;28;20128;-77
2022/11/16 07:37:32;;;;;;;31.75;19.90;;;;;;;6.42;100.00;99595.66;5034104;28;20093;-76
2022/11/16 07:39:58;;;;;;;38.47;20.05;;;;;;;6.40;100.00;99600.03;5032553;28;20080;-75
2022/11/16 07:42:25;;;;;;;33.28;20.10;;;;;;;6.34;100.00;99607.03;5031962;28;20470;-75
2022/11/16 07:44:51;;;;;;;36.65;19.83;;;;;;;6.31;100.00;99601.84;5035789;28;20085;-76
2022/11/16 07:47:18;;;;;;;36.95;19.85;;;;;;;6.29;100.00;99620.06;5025940;28;20045;-75
2022/11/16 07:49:47;;;;;;;37.28;19.85;;;;;;;6.25;100.00;99623.56;5025937;28;20524;-77
2022/11/16 07:52:13;;;;;;;29.48;19.02;;;;;;;6.26;100.00;99617.47;5037863;28;20046;-79
2022/11/16 07:54:40;;;;;;;31.98;19.83;;;;;;;6.26;100.00;99614.88;5026517;28;20662;-76
2022/11/16 07:57:06;;;;;;;35.67;19.38;;;;;;;6.27;100.00;99619.19;5030449;28;20503;-77
2022/11/16 07:59:33;;;;;;;33.47;19.13;;;;;;;6.25;100.00;99615.75;5025463;28;20483;-80
2022/11/16 08:02:00;;;;;;;39.35;20.50;;;;;;;6.22;100.00;99614.03;5029068;28;20036;-75
2022/11/16 08:04:26;;;;;;;32.03;19.27;;;;;;;6.19;100.00;99621.88;5023428;28;20049;-80
2022/11/16 08:06:53;;;;;;;31.35;18.88;;;;;;;6.16;100.00;99627.06;5033174;28;20055;-77
2022/11/16 08:09:19;;;;;;;37.00;20.20;;;;;;;6.19;100.00;99639.19;5046172;28;20049;-76
2022/11/16 08:11:46;;;;;;;33.60;20.23;;;;;;;6.17;100.00;99648.75;5033047;28;20046;-75
2022/11/16 08:14:14;;;;;;;34.85;20.17;;;;;;;6.12;100.00;99640.97;5033838;28;20116;-78
2022/11/16 08:16:40;;;;;;;41.95;19.73;;;;;;;6.09;100.00;99641.84;5031208;28;20041;-76
2022/11/16 08:19:07;;;;;;;36.85;20.30;;;;;;;6.09;100.00;99657.44;5034341;28;20050;-75
2022/11/16 08:21:33;;;;;;;32.65;19.30;;;;;;;6.10;100.00;99645.31;5031874;28;20065;-74
2022/11/16 08:24:00;;;;;;;35.92;19.65;;;;;;;6.06;100.00;99647.09;5032361;28;20045;-74
2022/11/16 08:26:27;;;;;;;34.53;20.10;;;;;;;6.00;100.00;99659.22;5035024;28;20045;-78
2022/11/16 08:28:55;;;;;;;31.30;20.27;;;;;;;5.92;100.00;99672.25;5055926;28;20148;-76
2022/11/16 08:31:27;;;;;;;40.22;20.60;;;;;;;5.90;100.00;99674.84;5022480;28;20481;-76
2022/11/16 08:33:55;;;;;;;42.65;21.58;;;;;;;5.92;100.00;99670.50;5035357;28;20088;-76
2022/11/16 08:36:22;;;;;;;39.90;21.92;;;;;;;5.89;100.00;99670.53;5037000;28;20060;-74
2022/11/16 08:38:50;;;;;;;37.13;19.27;;;;;;;5.90;100.00;99671.38;5051810;28;20053;-75
2022/11/16 08:41:18;;;;;;;36.40;21.52;;;;;;;5.89;100.00;99669.66;5017588;28;20152;-77
2022/11/16 08:43:46;;;;;;;37.35;22.23;;;;;;;5.89;100.00;99669.66;5033569;28;20658;-75
2022/11/16 08:46:14;;;;;;;36.92;21.00;;;;;;;5.87;100.00;99668.81;5035204;28;20057;-77
2022/11/16 08:48:41;;;;;;;33.97;21.25;;;;;;;5.83;100.00;99673.16;5033990;28;20068;-76
2022/11/16 08:51:14;;;;;;;36.97;21.15;;;;;;;5.79;100.00;99674.91;5032967;28;20041;-75
2022/11/16 08:53:40;;;;;;;38.47;21.08;;;;;;;5.72;100.00;99681.00;5031843;28;20049;-75
2022/11/16 08:56:11;;;;;;;35.97;20.40;;;;;;;5.65;100.00;99686.25;5031770;28;20783;-76
2022/11/16 08:58:38;;;;;;;36.88;21.90;;;;;;;5.62;100.00;99679.31;5032238;28;20041;-79
2022/11/16 09:01:17;;;;;;;40.67;21.02;;;;;;;5.70;100.00;99684.47;5026936;28;20081;-79
2022/11/16 09:03:45;;;;;;;40.78;23.58;;;;;;;5.71;100.00;99694.84;5034014;28;20454;-76
2022/11/16 09:06:12;;;;;;;42.38;23.00;;;;;;;5.67;100.00;99687.06;5045548;28;20137;-76
2022/11/16 09:08:42;;;;;;;41.83;23.27;;;;;;;5.64;100.00;99693.16;5042549;28;20095;-76
2022/11/16 09:11:12;;;;;;;43.78;22.63;;;;;;;5.61;100.00;99687.97;5032819;28;20743;-76
2022/11/16 09:13:41;;;;;;;43.45;22.42;;;;;;;5.61;100.00;99686.22;5051287;28;20042;-80
2022/11/16 09:16:08;;;;;;;34.78;21.13;;;;;;;5.61;100.00;99687.97;5038816;28;20040;-78
2022/11/16 09:18:36;;;;;;;38.13;21.42;;;;;;;5.64;100.00;99682.75;5032444;28;20037;-81
2022/11/16 09:21:02;;;;;;;37.17;22.20;;;;;;;5.71;100.00;99689.66;5028538;28;20041;-78
2022/11/16 09:23:29;;;;;;;34.90;21.40;;;;;;;5.69;100.00;99690.53;5044180;28;20190;-75
2022/11/16 09:25:55;;;;;;;37.53;22.25;;;;;;;5.72;100.00;99681.00;5028247;28;20052;-77
2022/11/16 09:28:22;;;;;;;37.08;23.15;;;;;;;5.71;100.00;99681.88;5034791;28;20045;-75
2022/11/16 09:30:51;;;;;;;35.40;21.27;;;;;;;5.77;100.00;99689.63;5030451;28;20047;-75
2022/11/16 09:33:18;;;;;;;43.17;22.98;;;;;;;5.77;100.00;99686.16;5030790;28;20049;-76
2022/11/16 09:35:45;;;;;;;40.10;22.83;;;;;;;5.75;100.00;99685.28;5010918;28;20069;-77
2022/11/16 09:38:12;;;;;;;44.38;23.20;;;;;;;5.76;100.00;99685.31;5008846;28;20067;-77
2022/11/16 09:40:46;;;;;;;33.83;22.00;;;;;;;5.71;100.00;99689.66;5031407;28;20041;-77
2022/11/16 09:43:41;;;;;;;35.75;21.75;;;;;;;5.71;100.00;99692.25;5026012;28;20168;-78
2022/11/16 09:46:25;;;;;;;34.97;22.42;;;;;;;5.66;100.00;99685.34;5032511;28;20116;-75
2022/11/16 09:48:56;;;;;;;34.33;21.42;;;;;;;5.63;100.00;99689.69;5037932;28;20038;-75
2022/11/16 09:51:28;;;;;;;36.15;22.27;;;;;;;5.61;100.00;99683.63;5033076;28;20033;-78
2022/11/16 09:54:06;;;;;;;41.53;23.70;;;;;;;5.61;100.00;99683.63;5018524;28;20053;-75
2022/11/16 09:56:38;;;;;;;38.22;23.13;;;;;;;5.61;100.00;99678.44;5032571;28;20054;-78
2022/11/16 09:59:08;;;;;;;39.63;22.80;;;;;;;5.58;100.00;99673.28;5033698;28;20044;-77
2022/11/16 10:01:48;;;;;;;41.63;23.77;;;;;;;5.57;100.00;99684.53;5036133;28;20032;-75
2022/11/16 10:04:39;;;;;;;38.55;23.05;;;;;;;5.55;100.00;99688.00;5029296;28;20052;-80
2022/11/16 10:07:22;;;;;;;39.55;24.95;;;;;;;5.59;100.00;99682.78;5029766;28;20045;-76
2022/11/16 10:09:49;;;;;;;39.92;23.77;;;;;;;5.62;100.00;99684.53;5037807;28;20076;-74
2022/11/16 10:12:42;;;;;;;43.85;24.75;;;;;;;5.67;100.00;99676.69;5018023;28;20049;-76
2022/11/16 10:15:33;;;;;;;41.95;23.75;;;;;;;5.69;100.00;99688.78;5031596;28;20045;-77
2022/11/16 10:18:36;;;;;;;52.63;26.05;;;;;;;5.67;100.00;99685.38;5039296;28;20044;-77
2022/11/16 10:21:34;;;;;;;40.05;24.60;;;;;;;5.65;100.00;99686.25;5029814;28;20124;-75
2022/11/16 10:24:24;;;;;;;39.42;23.33;;;;;;;5.63;100.00;99694.88;5035751;28;20053;-79
2022/11/16 10:27:24;;;;;;;40.83;24.23;;;;;;;5.58;100.00;99682.78;5046476;28;20058;-78
2022/11/16 10:30:20;;;;;;;40.35;25.38;;;;;;;5.52;100.00;99693.22;5031776;28;20113;-76
2022/11/16 10:32:58;;;;;;;38.63;25.65;;;;;;;5.48;100.00;99681.97;5015667;28;20461;-76
2022/11/16 10:35:39;;;;;;;39.58;23.38;;;;;;;5.49;100.00;99681.09;5027359;28;20055;-76
2022/11/16 10:38:16;;;;;;;41.20;24.85;;;;;;;5.49;100.00;99681.09;5046888;28;20167;-75
2022/11/16 10:40:49;;;;;;;41.83;23.80;;;;;;;5.52;100.00;99677.63;5030190;28;20136;-75
2022/11/16 10:43:20;;;;;;;;;;;;;;;5.48;100.00;99671.59;5029201;28;20053;-78
2022/11/16 10:46:05;;;;;;;42.45;24.45;;;;;;;5.46;100.00;99673.31;5032219;28;19921;-80
2022/11/16 10:48:49;;;;;;;38.15;23.42;;;;;;;5.43;100.00;99669.00;5032560;28;20052;-77
2022/11/16 10:51:16;;;;;;;40.33;23.90;;;;;;;5.48;100.00;99671.59;5011313;28;20050;-75
2022/11/16 10:53:43;;;;;;;42.30;24.80;;;;;;;5.51;100.00;99671.56;5034139;28;20052;-76
2022/11/16 10:56:33;;;;;;;43.85;24.52;;;;;;;5.56;100.00;99672.41;5029578;28;20050;-78
2022/11/16 10:59:14;;;;;;;44.17;25.85;;;;;;;5.63;100.00;99665.44;5025305;28;20567;-76
2022/11/16 11:01:52;;;;;;;42.92;24.08;;;;;;;5.69;100.00;99670.63;5024375;28;20556;-75
2022/11/16 11:04:25;;;;;;;45.67;25.08;;;;;;;5.67;100.00;99656.81;5030941;28;20072;-75
2022/11/16 11:07:23;;;;;;;41.53;24.85;;;;;;;5.73;100.00;99661.94;5035076;28;20061;-75
2022/11/16 11:09:54;;;;;;;41.17;23.25;;;;;;;5.75;100.00;99665.41;5018016;28;20049;-75
2022/11/16 11:12:38;;;;;;;38.70;22.02;;;;;;;5.78;100.00;99660.19;5018029;28;20037;-75
2022/11/16 11:15:11;;;;;;;42.25;23.98;;;;;;;5.85;100.00;99660.16;5030567;28;20073;-77
2022/11/16 11:17:46;;;;;;;37.22;21.83;;;;;;;5.83;100.00;99662.78;5028611;28;20118;-74
2022/11/16 11:20:23;;;;;;;37.88;22.08;;;;;;;5.77;100.00;99655.00;5037286;28;20124;-77
2022/11/16 11:23:00;;;;;;;43.05;24.88;;;;;;;5.77;100.00;99658.44;5030954;28;20044;-75
2022/11/16 11:25:32;;;;;;;39.97;23.25;;;;;;;5.86;100.00;99660.13;5014782;28;20048;-74
2022/11/16 11:28:26;;;;;;;34.75;20.65;;;;;;;5.89;100.00;99656.66;5016811;28;20175;-75
2022/11/16 11:31:24;;;;;;;33.78;21.20;;;;;;;5.86;100.00;99657.53;5027335;28;20132;-78
2022/11/16 11:34:20;;;;;;;38.33;21.08;;;;;;;5.85;100.00;99663.59;5025875;28;20044;-75
2022/11/16 11:37:13;;;;;;;36.45;21.83;;;;;;;5.87;100.00;99666.22;5023363;28;20056;-75
2022/11/16 11:39:40;;;;;;;38.40;22.13;;;;;;;5.83;100.00;99654.97;5029039;28;20044;-74
2022/11/16 11:42:22;;;;;;;31.80;20.02;;;;;;;5.81;100.00;99651.50;5030160;28;20045;-77
2022/11/16 11:44:58;;;;;;;34.47;20.40;;;;;;;5.79;100.00;99648.94;5051333;28;20068;-74
2022/11/16 11:47:52;;;;;;;34.47;19.67;;;;;;;5.86;100.00;99654.09;5031166;28;20044;-75
2022/11/16 11:50:41;;;;;;;31.00;19.85;;;;;;;5.81;100.00;99648.91;5003702;28;20547;-78
2022/11/16 11:53:16;;;;;;;33.50;19.80;;;;;;;5.88;100.00;99645.44;5025935;28;20053;-75
2022/11/16 11:55:43;;;;;;;30.13;18.25;;;;;;;5.90;100.00;99645.41;5043534;28;20046;-74
2022/11/16 11:58:16;;;;;;;28.85;16.95;;;;;;;5.91;100.00;99642.78;5022314;28;20125;-74
2022/11/16 12:01:25;;;;;;;28.33;16.65;;;;;;;5.93;100.00;99645.38;5024820;28;20045;-76
2022/11/16 12:04:30;;;;;;;28.40;16.80;;;;;;;5.89;100.00;99641.97;5032265;28;20054;-76
2022/11/16 12:07:50;;;;;;;25.65;15.93;;;;;;;5.85;100.00;99647.16;5021848;28;20144;-77
2022/11/16 12:10:45;;;;;;;31.83;17.38;;;;;;;5.81;100.00;99638.53;5019006;28;20080;-77
2022/11/16 12:13:20;;;;;;;;;;;;;;;5.77;100.00;99645.47;5022581;28;20049;-76
2022/11/16 12:16:27;;;;;;;22.35;14.50;;;;;;;5.75;100.00;99646.34;5029153;28;19921;-77
2022/11/16 12:19:19;;;;;;;25.45;14.82;;;;;;;5.73;100.00;99646.34;5023817;28;20044;-75
2022/11/16 12:22:19;;;;;;;38.95;18.13;;;;;;;5.73;100.00;99645.50;5028617;28;20618;-77
2022/11/16 12:25:11;;;;;;;24.83;15.10;;;;;;;5.72;100.00;99641.19;5025425;28;20396;-74
2022/11/16 12:27:56;;;;;;;32.63;15.55;;;;;;;5.74;100.00;99640.31;5023677;28;20049;-77
2022/11/16 12:30:24;;;;;;;27.75;15.25;;;;;;;5.75;100.00;99643.75;5027902;28;20105;-75
2022/11/16 12:33:03;;;;;;;26.58;15.35;;;;;;;5.80;100.00;99634.19;5024753;28;20124;-78